Sinai, South Dakota
Current Conditions -  °F | °C
As of 4:50 PM on Sunday 21 Dec 2014 (Local Time) from KMDS Reporting Station
Haze Haze  
Wind Chill: 23°   Ceiling: 300
Heat Index: 34°   Visibility: 2.5mi
Dew Point: 34°   Wind: 17mph
Humidity: 100%   Direction: 170°S
Pressure: 29.55"   Gusts: 25mph
Location:  44.24°N, 97.04°W
Report Text: KMDS 212250Z AUTO 17015G22KT 2 1/2SM BR OVC003 01/01 A2955 RMK AO2
Loading
Personal Weather Stations






























Interactive Weather Map New forecast layout! Learn more

10-Day Weather Forecast

Advertisements
Track Severe Weather on mobile